sensor_id;sensor_type;location;lat;lon;timestamp;P1;durP1;ratioP1;P2;durP2;ratioP2
73173;SDS011;61702;55.010;73.404;2022-07-21T00:03:00;42.75;;;22.63;;
73173;SDS011;61702;55.010;73.404;2022-07-21T00:08:00;42.88;;;22.75;;
73173;SDS011;61702;55.010;73.404;2022-07-21T00:10:26;41.23;;;22.50;;
73173;SDS011;61702;55.010;73.404;2022-07-21T00:12:57;42.28;;;22.65;;
73173;SDS011;61702;55.010;73.404;2022-07-21T00:18:00;36.45;;;21.15;;
73173;SDS011;61702;55.010;73.404;2022-07-21T00:23:10;33.20;;;19.27;;
73173;SDS011;61702;55.010;73.404;2022-07-21T00:25:36;24.90;;;14.25;;
73173;SDS011;61702;55.010;73.404;2022-07-21T00:28:02;31.30;;;19.13;;
73173;SDS011;61702;55.010;73.404;2022-07-21T00:33:00;29.13;;;17.70;;
73173;SDS011;61702;55.010;73.404;2022-07-21T00:38:00;25.17;;;17.83;;
73173;SDS011;61702;55.010;73.404;2022-07-21T00:40:26;27.85;;;18.52;;
73173;SDS011;61702;55.010;73.404;2022-07-21T00:42:53;28.70;;;18.13;;
73173;SDS011;61702;55.010;73.404;2022-07-21T00:48:11;25.53;;;18.10;;
73173;SDS011;61702;55.010;73.404;2022-07-21T00:50:38;23.35;;;16.40;;
73173;SDS011;61702;55.010;73.404;2022-07-21T00:53:04;29.73;;;18.30;;
73173;SDS011;61702;55.010;73.404;2022-07-21T00:58:10;29.58;;;17.88;;
73173;SDS011;61702;55.010;73.404;2022-07-21T01:00:36;16.70;;;13.70;;
73173;SDS011;61702;55.010;73.404;2022-07-21T01:03:03;27.40;;;17.10;;
73173;SDS011;61702;55.010;73.404;2022-07-21T01:05:34;28.20;;;17.10;;
73173;SDS011;61702;55.010;73.404;2022-07-21T01:08:10;24.17;;;15.90;;
73173;SDS011;61702;55.010;73.404;2022-07-21T01:10:37;24.23;;;16.70;;
73173;SDS011;61702;55.010;73.404;2022-07-21T01:13:11;26.30;;;16.90;;
73173;SDS011;61702;55.010;73.404;2022-07-21T01:15:37;18.00;;;11.90;;
73173;SDS011;61702;55.010;73.404;2022-07-21T01:18:08;24.42;;;16.80;;
73173;SDS011;61702;55.010;73.404;2022-07-21T01:20:35;8.70;;;7.60;;
73173;SDS011;61702;55.010;73.404;2022-07-21T01:23:01;20.52;;;15.20;;
73173;SDS011;61702;55.010;73.404;2022-07-21T01:28:00;23.33;;;16.25;;
73173;SDS011;61702;55.010;73.404;2022-07-21T01:33:05;26.75;;;16.38;;
73173;SDS011;61702;55.010;73.404;2022-07-21T01:38:00;21.05;;;13.90;;
73173;SDS011;61702;55.010;73.404;2022-07-21T01:40:26;21.93;;;15.60;;
73173;SDS011;61702;55.010;73.404;2022-07-21T01:43:10;21.35;;;15.50;;
73173;SDS011;61702;55.010;73.404;2022-07-21T01:45:36;26.85;;;9.35;;
73173;SDS011;61702;55.010;73.404;2022-07-21T01:48:04;26.70;;;15.68;;
73173;SDS011;61702;55.010;73.404;2022-07-21T01:53:00;21.20;;;14.98;;
73173;SDS011;61702;55.010;73.404;2022-07-21T01:58:01;22.30;;;14.50;;
73173;SDS011;61702;55.010;73.404;2022-07-21T02:03:03;17.48;;;14.10;;
73173;SDS011;61702;55.010;73.404;2022-07-21T02:05:38;23.00;;;11.20;;
73173;SDS011;61702;55.010;73.404;2022-07-21T02:08:05;17.00;;;13.80;;
73173;SDS011;61702;55.010;73.404;2022-07-21T02:10:41;17.53;;;14.87;;
73173;SDS011;61702;55.010;73.404;2022-07-21T02:13:08;17.25;;;14.10;;
73173;SDS011;61702;55.010;73.404;2022-07-21T02:18:05;14.68;;;12.55;;
73173;SDS011;61702;55.010;73.404;2022-07-21T02:22:59;16.05;;;14.27;;
73173;SDS011;61702;55.010;73.404;2022-07-21T02:28:07;19.63;;;14.07;;
73173;SDS011;61702;55.010;73.404;2022-07-21T02:33:00;19.00;;;13.60;;
73173;SDS011;61702;55.010;73.404;2022-07-21T02:38:01;20.85;;;15.00;;
73173;SDS011;61702;55.010;73.404;2022-07-21T02:40:28;25.60;;;14.95;;
73173;SDS011;61702;55.010;73.404;2022-07-21T02:42:56;21.63;;;15.80;;
73173;SDS011;61702;55.010;73.404;2022-07-21T02:48:04;28.13;;;16.17;;
73173;SDS011;61702;55.010;73.404;2022-07-21T02:53:11;39.15;;;20.40;;
73173;SDS011;61702;55.010;73.404;2022-07-21T02:58:16;52.87;;;22.10;;
73173;SDS011;61702;55.010;73.404;2022-07-21T03:00:52;37.90;;;21.23;;
73173;SDS011;61702;55.010;73.404;2022-07-21T03:03:20;38.63;;;21.17;;
73173;SDS011;61702;55.010;73.404;2022-07-21T03:05:48;43.45;;;24.13;;
73173;SDS011;61702;55.010;73.404;2022-07-21T03:08:14;41.15;;;24.45;;
73173;SDS011;61702;55.010;73.404;2022-07-21T03:10:44;48.77;;;23.77;;
73173;SDS011;61702;55.010;73.404;2022-07-21T03:13:11;40.92;;;22.50;;
73173;SDS011;61702;55.010;73.404;2022-07-21T03:18:03;49.22;;;22.77;;
73173;SDS011;61702;55.010;73.404;2022-07-21T03:23:08;28.15;;;17.60;;
73173;SDS011;61702;55.010;73.404;2022-07-21T03:25:35;16.20;;;9.30;;
73173;SDS011;61702;55.010;73.404;2022-07-21T03:28:02;33.50;;;15.77;;
73173;SDS011;61702;55.010;73.404;2022-07-21T03:33:00;28.88;;;16.38;;
73173;SDS011;61702;55.010;73.404;2022-07-21T03:38:01;31.30;;;17.27;;
73173;SDS011;61702;55.010;73.404;2022-07-21T03:40:36;30.98;;;17.63;;
73173;SDS011;61702;55.010;73.404;2022-07-21T03:43:04;35.03;;;18.13;;
73173;SDS011;61702;55.010;73.404;2022-07-21T03:48:03;40.75;;;18.98;;
73173;SDS011;61702;55.010;73.404;2022-07-21T03:53:00;62.00;;;21.67;;
73173;SDS011;61702;55.010;73.404;2022-07-21T03:58:00;49.33;;;18.55;;
73173;SDS011;61702;55.010;73.404;2022-07-21T04:03:08;53.28;;;19.20;;
73173;SDS011;61702;55.010;73.404;2022-07-21T04:05:35;70.00;;;13.60;;
73173;SDS011;61702;55.010;73.404;2022-07-21T04:08:03;72.57;;;25.23;;
73173;SDS011;61702;55.010;73.404;2022-07-21T04:10:30;54.87;;;20.80;;
73173;SDS011;61702;55.010;73.404;2022-07-21T04:12:59;35.80;;;16.53;;
73173;SDS011;61702;55.010;73.404;2022-07-21T04:18:00;37.80;;;17.15;;
73173;SDS011;61702;55.010;73.404;2022-07-21T04:23:00;19.92;;;14.35;;
73173;SDS011;61702;55.010;73.404;2022-07-21T04:28:01;19.27;;;14.32;;
73173;SDS011;61702;55.010;73.404;2022-07-21T04:33:02;18.98;;;13.45;;
73173;SDS011;61702;55.010;73.404;2022-07-21T04:38:01;21.05;;;14.65;;
73173;SDS011;61702;55.010;73.404;2022-07-21T04:40:27;21.65;;;13.85;;
73173;SDS011;61702;55.010;73.404;2022-07-21T04:42:56;22.37;;;13.53;;
73173;SDS011;61702;55.010;73.404;2022-07-21T04:45:34;22.30;;;13.70;;
73173;SDS011;61702;55.010;73.404;2022-07-21T04:48:00;17.73;;;13.33;;
73173;SDS011;61702;55.010;73.404;2022-07-21T04:53:00;16.60;;;12.53;;
73173;SDS011;61702;55.010;73.404;2022-07-21T04:58:02;18.85;;;12.25;;
73173;SDS011;61702;55.010;73.404;2022-07-21T05:02:59;18.40;;;12.80;;
73173;SDS011;61702;55.010;73.404;2022-07-21T05:08:00;18.10;;;12.45;;
73173;SDS011;61702;55.010;73.404;2022-07-21T05:10:28;16.37;;;11.90;;
73173;SDS011;61702;55.010;73.404;2022-07-21T05:12:54;16.50;;;12.40;;
73173;SDS011;61702;55.010;73.404;2022-07-21T05:17:59;21.83;;;12.52;;
73173;SDS011;61702;55.010;73.404;2022-07-21T05:22:59;29.87;;;15.10;;
73173;SDS011;61702;55.010;73.404;2022-07-21T05:28:14;37.92;;;16.23;;
73173;SDS011;61702;55.010;73.404;2022-07-21T05:30:41;51.67;;;15.82;;
73173;SDS011;61702;55.010;73.404;2022-07-21T05:33:14;36.80;;;15.27;;
73173;SDS011;61702;55.010;73.404;2022-07-21T05:35:50;29.17;;;12.83;;
73173;SDS011;61702;55.010;73.404;2022-07-21T05:38:22;26.75;;;14.80;;
73173;SDS011;61702;55.010;73.404;2022-07-21T05:40:50;34.77;;;15.20;;
73173;SDS011;61702;55.010;73.404;2022-07-21T05:43:21;34.43;;;14.03;;
73173;SDS011;61702;55.010;73.404;2022-07-21T05:45:48;26.27;;;13.45;;
73173;SDS011;61702;55.010;73.404;2022-07-21T05:48:18;37.15;;;15.00;;
73173;SDS011;61702;55.010;73.404;2022-07-21T05:50:53;44.27;;;15.13;;
73173;SDS011;61702;55.010;73.404;2022-07-21T05:53:29;39.67;;;16.63;;
73173;SDS011;61702;55.010;73.404;2022-07-21T05:55:55;48.28;;;15.85;;
73173;SDS011;61702;55.010;73.404;2022-07-21T05:58:33;37.30;;;15.20;;
73173;SDS011;61702;55.010;73.404;2022-07-21T06:01:07;32.20;;;15.27;;
73173;SDS011;61702;55.010;73.404;2022-07-21T06:03:37;48.38;;;14.88;;
73173;SDS011;61702;55.010;73.404;2022-07-21T06:06:14;49.13;;;14.67;;
73173;SDS011;61702;55.010;73.404;2022-07-21T06:12:22;41.75;;;14.40;;
73173;SDS011;61702;55.010;73.404;2022-07-21T06:14:48;35.67;;;14.07;;
73173;SDS011;61702;55.010;73.404;2022-07-21T06:17:18;27.43;;;13.23;;
73173;SDS011;61702;55.010;73.404;2022-07-21T06:19:49;42.60;;;15.33;;
73173;SDS011;61702;55.010;73.404;2022-07-21T06:22:16;43.17;;;15.00;;
73173;SDS011;61702;55.010;73.404;2022-07-21T06:24:45;42.07;;;14.17;;
73173;SDS011;61702;55.010;73.404;2022-07-21T06:27:11;36.63;;;14.20;;
73173;SDS011;61702;55.010;73.404;2022-07-21T06:29:37;27.57;;;13.60;;
73173;SDS011;61702;55.010;73.404;2022-07-21T06:32:09;21.20;;;12.33;;
73173;SDS011;61702;55.010;73.404;2022-07-21T06:34:35;16.70;;;12.27;;
73173;SDS011;61702;55.010;73.404;2022-07-21T06:37:02;19.08;;;12.18;;
73173;SDS011;61702;55.010;73.404;2022-07-21T06:39:28;21.00;;;11.88;;
73173;SDS011;61702;55.010;73.404;2022-07-21T06:41:54;20.57;;;12.33;;
73173;SDS011;61702;55.010;73.404;2022-07-21T06:44:31;24.27;;;11.63;;
73173;SDS011;61702;55.010;73.404;2022-07-21T06:47:07;17.33;;;10.65;;
73173;SDS011;61702;55.010;73.404;2022-07-21T06:49:33;13.83;;;10.83;;
73173;SDS011;61702;55.010;73.404;2022-07-21T06:51:59;17.05;;;10.77;;
73173;SDS011;61702;55.010;73.404;2022-07-21T06:54:39;25.08;;;11.02;;
73173;SDS011;61702;55.010;73.404;2022-07-21T06:57:18;30.92;;;12.57;;
73173;SDS011;61702;55.010;73.404;2022-07-21T06:59:53;19.05;;;11.43;;
73173;SDS011;61702;55.010;73.404;2022-07-21T07:02:20;18.87;;;10.73;;
73173;SDS011;61702;55.010;73.404;2022-07-21T07:04:51;19.88;;;11.48;;
73173;SDS011;61702;55.010;73.404;2022-07-21T07:07:27;20.95;;;11.60;;
73173;SDS011;61702;55.010;73.404;2022-07-21T07:09:55;27.47;;;11.53;;
73173;SDS011;61702;55.010;73.404;2022-07-21T07:12:30;29.23;;;10.77;;
73173;SDS011;61702;55.010;73.404;2022-07-21T07:15:33;25.53;;;11.30;;
73173;SDS011;61702;55.010;73.404;2022-07-21T07:18:00;23.08;;;11.35;;
73173;SDS011;61702;55.010;73.404;2022-07-21T07:22:59;18.40;;;9.50;;
73173;SDS011;61702;55.010;73.404;2022-07-21T07:28:03;18.83;;;9.52;;
73173;SDS011;61702;55.010;73.404;2022-07-21T07:33:02;23.42;;;11.98;;
73173;SDS011;61702;55.010;73.404;2022-07-21T07:37:59;27.35;;;10.13;;
73173;SDS011;61702;55.010;73.404;2022-07-21T07:40:26;18.77;;;9.23;;
73173;SDS011;61702;55.010;73.404;2022-07-21T07:42:52;20.08;;;9.68;;
73173;SDS011;61702;55.010;73.404;2022-07-21T07:48:11;73.93;;;13.27;;
73173;SDS011;61702;55.010;73.404;2022-07-21T07:50:37;38.00;;;13.00;;
73173;SDS011;61702;55.010;73.404;2022-07-21T07:53:04;110.38;;;19.52;;
73173;SDS011;61702;55.010;73.404;2022-07-21T07:58:02;49.87;;;18.03;;
73173;SDS011;61702;55.010;73.404;2022-07-21T08:03:02;47.97;;;19.87;;
73173;SDS011;61702;55.010;73.404;2022-07-21T08:07:59;46.03;;;20.60;;
73173;SDS011;61702;55.010;73.404;2022-07-21T08:10:26;37.33;;;19.27;;
73173;SDS011;61702;55.010;73.404;2022-07-21T08:12:59;35.10;;;18.37;;
73173;SDS011;61702;55.010;73.404;2022-07-21T08:15:34;34.50;;;18.30;;
73173;SDS011;61702;55.010;73.404;2022-07-21T08:18:01;37.70;;;18.00;;
73173;SDS011;61702;55.010;73.404;2022-07-21T08:23:00;45.83;;;20.03;;
73173;SDS011;61702;55.010;73.404;2022-07-21T08:28:00;44.75;;;21.52;;
73173;SDS011;61702;55.010;73.404;2022-07-21T08:33:00;49.33;;;20.83;;
73173;SDS011;61702;55.010;73.404;2022-07-21T08:35:36;46.20;;;17.00;;
73173;SDS011;61702;55.010;73.404;2022-07-21T08:38:08;39.92;;;19.75;;
73173;SDS011;61702;55.010;73.404;2022-07-21T08:40:43;46.22;;;21.05;;
73173;SDS011;61702;55.010;73.404;2022-07-21T08:43:14;44.07;;;19.20;;
73173;SDS011;61702;55.010;73.404;2022-07-21T08:45:50;45.20;;;19.93;;
73173;SDS011;61702;55.010;73.404;2022-07-21T08:48:21;44.72;;;20.73;;
73173;SDS011;61702;55.010;73.404;2022-07-21T08:50:50;38.97;;;19.13;;
73173;SDS011;61702;55.010;73.404;2022-07-21T08:53:17;35.97;;;17.43;;
73173;SDS011;61702;55.010;73.404;2022-07-21T08:55:53;29.52;;;14.27;;
73173;SDS011;61702;55.010;73.404;2022-07-21T08:58:20;23.15;;;10.70;;
73173;SDS011;61702;55.010;73.404;2022-07-21T09:00:56;19.10;;;10.05;;
73173;SDS011;61702;55.010;73.404;2022-07-21T09:03:38;20.25;;;9.40;;
73173;SDS011;61702;55.010;73.404;2022-07-21T09:06:12;15.40;;;9.63;;
73173;SDS011;61702;55.010;73.404;2022-07-21T09:08:42;17.70;;;10.13;;
73173;SDS011;61702;55.010;73.404;2022-07-21T09:11:23;18.30;;;9.90;;
73173;SDS011;61702;55.010;73.404;2022-07-21T09:14:07;20.10;;;10.32;;
73173;SDS011;61702;55.010;73.404;2022-07-21T09:16:54;14.73;;;9.10;;
73173;SDS011;61702;55.010;73.404;2022-07-21T09:19:22;19.10;;;9.30;;
73173;SDS011;61702;55.010;73.404;2022-07-21T09:21:59;21.70;;;9.20;;
73173;SDS011;61702;55.010;73.404;2022-07-21T09:24:27;23.85;;;9.55;;
73173;SDS011;61702;55.010;73.404;2022-07-21T09:29:36;29.95;;;10.10;;
73173;SDS011;61702;55.010;73.404;2022-07-21T09:32:29;22.10;;;9.47;;
73173;SDS011;61702;55.010;73.404;2022-07-21T09:35:33;26.71;;;9.49;;
73173;SDS011;61702;55.010;73.404;2022-07-21T09:38:21;20.52;;;9.20;;
73173;SDS011;61702;55.010;73.404;2022-07-21T09:41:07;21.77;;;9.70;;
73173;SDS011;61702;55.010;73.404;2022-07-21T09:46:21;15.07;;;9.73;;
73173;SDS011;61702;55.010;73.404;2022-07-21T09:48:54;16.52;;;9.05;;
73173;SDS011;61702;55.010;73.404;2022-07-21T09:51:37;20.30;;;8.90;;
73173;SDS011;61702;55.010;73.404;2022-07-21T09:54:06;20.10;;;9.43;;
73173;SDS011;61702;55.010;73.404;2022-07-21T09:56:45;20.30;;;9.50;;
73173;SDS011;61702;55.010;73.404;2022-07-21T09:59:22;20.25;;;9.27;;
73173;SDS011;61702;55.010;73.404;2022-07-21T10:01:53;17.35;;;9.23;;
73173;SDS011;61702;55.010;73.404;2022-07-21T10:04:20;16.10;;;8.40;;
73173;SDS011;61702;55.010;73.404;2022-07-21T10:06:55;21.50;;;8.10;;
73173;SDS011;61702;55.010;73.404;2022-07-21T10:09:27;11.00;;;6.32;;
73173;SDS011;61702;55.010;73.404;2022-07-21T10:11:54;14.50;;;6.23;;
73173;SDS011;61702;55.010;73.404;2022-07-21T10:14:30;12.77;;;6.03;;
73173;SDS011;61702;55.010;73.404;2022-07-21T10:17:02;7.93;;;4.87;;
73173;SDS011;61702;55.010;73.404;2022-07-21T10:19:32;15.40;;;5.30;;
73173;SDS011;61702;55.010;73.404;2022-07-21T10:24:51;10.35;;;4.88;;
73173;SDS011;61702;55.010;73.404;2022-07-21T10:27:28;10.50;;;4.90;;
73173;SDS011;61702;55.010;73.404;2022-07-21T10:30:46;8.97;;;4.78;;
73173;SDS011;61702;55.010;73.404;2022-07-21T10:33:15;10.93;;;4.30;;
73173;SDS011;61702;55.010;73.404;2022-07-21T10:35:47;5.25;;;3.42;;
73173;SDS011;61702;55.010;73.404;2022-07-21T10:38:31;9.27;;;4.70;;
73173;SDS011;61702;55.010;73.404;2022-07-21T10:40:59;7.00;;;4.17;;
73173;SDS011;61702;55.010;73.404;2022-07-21T10:45:54;14.30;;;5.07;;
73173;SDS011;61702;55.010;73.404;2022-07-21T10:51:03;15.27;;;5.70;;
73173;SDS011;61702;55.010;73.404;2022-07-21T10:53:43;16.02;;;5.88;;
73173;SDS011;61702;55.010;73.404;2022-07-21T10:56:27;10.60;;;5.40;;
73173;SDS011;61702;55.010;73.404;2022-07-21T10:58:54;10.25;;;5.20;;
73173;SDS011;61702;55.010;73.404;2022-07-21T11:01:21;8.90;;;4.70;;
73173;SDS011;61702;55.010;73.404;2022-07-21T11:04:32;12.13;;;4.88;;
73173;SDS011;61702;55.010;73.404;2022-07-21T11:06:43;11.30;;;4.90;;
73173;SDS011;61702;55.010;73.404;2022-07-21T11:09:17;9.73;;;5.03;;
73173;SDS011;61702;55.010;73.404;2022-07-21T11:11:58;9.90;;;4.88;;
73173;SDS011;61702;55.010;73.404;2022-07-21T11:14:34;11.10;;;4.75;;
73173;SDS011;61702;55.010;73.404;2022-07-21T11:17:02;10.10;;;5.07;;
73173;SDS011;61702;55.010;73.404;2022-07-21T11:19:36;15.30;;;5.53;;
73173;SDS011;61702;55.010;73.404;2022-07-21T11:22:22;8.75;;;4.72;;
73173;SDS011;61702;55.010;73.404;2022-07-21T11:24:51;9.23;;;5.05;;
73173;SDS011;61702;55.010;73.404;2022-07-21T11:27:32;8.23;;;4.63;;
73173;SDS011;61702;55.010;73.404;2022-07-21T11:30:34;12.32;;;5.06;;
73173;SDS011;61702;55.010;73.404;2022-07-21T11:33:01;10.48;;;4.88;;
73173;SDS011;61702;55.010;73.404;2022-07-21T11:38:03;10.63;;;4.93;;
73173;SDS011;61702;55.010;73.404;2022-07-21T11:40:29;15.27;;;5.50;;
73173;SDS011;61702;55.010;73.404;2022-07-21T11:42:56;12.38;;;6.25;;
73173;SDS011;61702;55.010;73.404;2022-07-21T11:48:00;10.98;;;5.82;;
73173;SDS011;61702;55.010;73.404;2022-07-21T11:53:12;14.27;;;5.40;;
73173;SDS011;61702;55.010;73.404;2022-07-21T11:55:44;13.38;;;5.38;;
73173;SDS011;61702;55.010;73.404;2022-07-21T11:58:14;9.40;;;4.45;;
73173;SDS011;61702;55.010;73.404;2022-07-21T12:00:40;5.10;;;2.73;;
73173;SDS011;61702;55.010;73.404;2022-07-21T12:03:16;14.13;;;4.32;;
73173;SDS011;61702;55.010;73.404;2022-07-21T12:05:56;21.90;;;4.60;;
73173;SDS011;61702;55.010;73.404;2022-07-21T12:08:22;19.77;;;3.35;;
73173;SDS011;61702;55.010;73.404;2022-07-21T12:11:03;14.90;;;3.78;;
73173;SDS011;61702;55.010;73.404;2022-07-21T12:13:50;8.40;;;2.92;;
73173;SDS011;61702;55.010;73.404;2022-07-21T12:16:35;8.77;;;3.50;;
73173;SDS011;61702;55.010;73.404;2022-07-21T12:19:18;8.23;;;2.85;;
73173;SDS011;61702;55.010;73.404;2022-07-21T12:24:19;6.55;;;3.80;;
73173;SDS011;61702;55.010;73.404;2022-07-21T12:26:49;9.07;;;4.07;;
73173;SDS011;61702;55.010;73.404;2022-07-21T12:29:28;11.65;;;4.20;;
73173;SDS011;61702;55.010;73.404;2022-07-21T12:32:00;12.38;;;4.80;;
73173;SDS011;61702;55.010;73.404;2022-07-21T12:34:31;8.60;;;3.70;;
73173;SDS011;61702;55.010;73.404;2022-07-21T12:36:58;8.40;;;3.90;;
73173;SDS011;61702;55.010;73.404;2022-07-21T12:39:25;8.90;;;3.33;;
73173;SDS011;61702;55.010;73.404;2022-07-21T12:42:26;11.90;;;4.00;;
73173;SDS011;61702;55.010;73.404;2022-07-21T12:44:54;8.88;;;3.25;;
73173;SDS011;61702;55.010;73.404;2022-07-21T12:47:26;6.03;;;3.23;;
73173;SDS011;61702;55.010;73.404;2022-07-21T12:50:33;5.25;;;3.01;;
73173;SDS011;61702;55.010;73.404;2022-07-21T12:53:00;8.68;;;3.30;;
73173;SDS011;61702;55.010;73.404;2022-07-21T12:58:00;5.93;;;2.97;;
73173;SDS011;61702;55.010;73.404;2022-07-21T13:03:02;8.85;;;3.13;;
73173;SDS011;61702;55.010;73.404;2022-07-21T13:08:02;7.20;;;3.23;;
73173;SDS011;61702;55.010;73.404;2022-07-21T13:10:29;10.43;;;3.17;;
73173;SDS011;61702;55.010;73.404;2022-07-21T13:12:59;12.10;;;3.30;;
73173;SDS011;61702;55.010;73.404;2022-07-21T13:17:59;8.07;;;3.15;;
73173;SDS011;61702;55.010;73.404;2022-07-21T13:23:02;8.67;;;3.67;;
73173;SDS011;61702;55.010;73.404;2022-07-21T13:28:11;6.57;;;3.00;;
73173;SDS011;61702;55.010;73.404;2022-07-21T13:30:40;6.30;;;2.97;;
73173;SDS011;61702;55.010;73.404;2022-07-21T13:33:15;5.85;;;3.72;;
73173;SDS011;61702;55.010;73.404;2022-07-21T13:35:42;6.50;;;3.40;;
73173;SDS011;61702;55.010;73.404;2022-07-21T13:38:10;6.75;;;3.38;;
73173;SDS011;61702;55.010;73.404;2022-07-21T13:40:36;5.53;;;3.50;;
73173;SDS011;61702;55.010;73.404;2022-07-21T13:43:04;8.32;;;3.33;;
73173;SDS011;61702;55.010;73.404;2022-07-21T13:48:02;13.57;;;3.42;;
73173;SDS011;61702;55.010;73.404;2022-07-21T13:53:02;6.75;;;3.13;;
73173;SDS011;61702;55.010;73.404;2022-07-21T13:58:00;6.47;;;3.47;;
73173;SDS011;61702;55.010;73.404;2022-07-21T14:03:03;6.50;;;3.00;;
73173;SDS011;61702;55.010;73.404;2022-07-21T14:08:07;9.63;;;3.28;;
73173;SDS011;61702;55.010;73.404;2022-07-21T14:10:35;7.27;;;3.20;;
73173;SDS011;61702;55.010;73.404;2022-07-21T14:13:11;5.75;;;3.15;;
73173;SDS011;61702;55.010;73.404;2022-07-21T14:15:38;3.80;;;2.00;;
73173;SDS011;61702;55.010;73.404;2022-07-21T14:18:05;8.98;;;3.00;;
73173;SDS011;61702;55.010;73.404;2022-07-21T14:22:59;7.80;;;2.83;;
73173;SDS011;61702;55.010;73.404;2022-07-21T14:27:59;8.18;;;3.63;;
73173;SDS011;61702;55.010;73.404;2022-07-21T14:33:04;9.18;;;3.28;;
73173;SDS011;61702;55.010;73.404;2022-07-21T14:38:00;5.23;;;3.20;;
73173;SDS011;61702;55.010;73.404;2022-07-21T14:40:29;6.68;;;3.15;;
73173;SDS011;61702;55.010;73.404;2022-07-21T14:42:56;9.00;;;3.30;;
73173;SDS011;61702;55.010;73.404;2022-07-21T14:48:02;8.10;;;3.83;;
73173;SDS011;61702;55.010;73.404;2022-07-21T14:53:00;5.70;;;3.42;;
73173;SDS011;61702;55.010;73.404;2022-07-21T14:58:07;7.43;;;3.30;;
73173;SDS011;61702;55.010;73.404;2022-07-21T15:03:07;10.05;;;3.67;;
73173;SDS011;61702;55.010;73.404;2022-07-21T15:07:59;7.72;;;3.25;;
73173;SDS011;61702;55.010;73.404;2022-07-21T15:10:31;6.57;;;3.35;;
73173;SDS011;61702;55.010;73.404;2022-07-21T15:12:58;10.13;;;3.70;;
73173;SDS011;61702;55.010;73.404;2022-07-21T15:15:35;9.80;;;3.80;;
73173;SDS011;61702;55.010;73.404;2022-07-21T15:18:04;8.20;;;3.90;;
73173;SDS011;61702;55.010;73.404;2022-07-21T15:20:37;6.05;;;3.05;;
73173;SDS011;61702;55.010;73.404;2022-07-21T15:23:14;8.83;;;4.03;;
73173;SDS011;61702;55.010;73.404;2022-07-21T15:25:42;4.17;;;2.73;;
73173;SDS011;61702;55.010;73.404;2022-07-21T15:28:08;8.05;;;4.20;;
73173;SDS011;61702;55.010;73.404;2022-07-21T15:30:47;13.00;;;4.53;;
73173;SDS011;61702;55.010;73.404;2022-07-21T15:33:23;15.95;;;5.13;;
73173;SDS011;61702;55.010;73.404;2022-07-21T15:35:50;9.97;;;5.07;;
73173;SDS011;61702;55.010;73.404;2022-07-21T15:38:20;9.73;;;4.27;;
73173;SDS011;61702;55.010;73.404;2022-07-21T15:40:59;11.00;;;4.50;;
73173;SDS011;61702;55.010;73.404;2022-07-21T15:43:26;9.32;;;4.70;;
73173;SDS011;61702;55.010;73.404;2022-07-21T15:49:08;11.50;;;5.03;;
73173;SDS011;61702;55.010;73.404;2022-07-21T15:51:36;9.40;;;5.27;;
73173;SDS011;61702;55.010;73.404;2022-07-21T15:54:14;8.10;;;5.40;;
73173;SDS011;61702;55.010;73.404;2022-07-21T15:56:41;11.77;;;5.43;;
73173;SDS011;61702;55.010;73.404;2022-07-21T15:59:12;9.73;;;5.50;;
73173;SDS011;61702;55.010;73.404;2022-07-21T16:01:58;10.43;;;5.90;;
73173;SDS011;61702;55.010;73.404;2022-07-21T16:04:25;11.77;;;6.00;;
73173;SDS011;61702;55.010;73.404;2022-07-21T16:07:10;10.27;;;6.47;;
73173;SDS011;61702;55.010;73.404;2022-07-21T16:09:40;15.75;;;6.10;;
73173;SDS011;61702;55.010;73.404;2022-07-21T16:12:12;14.45;;;6.15;;
73173;SDS011;61702;55.010;73.404;2022-07-21T16:14:39;11.75;;;6.43;;
73173;SDS011;61702;55.010;73.404;2022-07-21T16:17:07;15.17;;;6.80;;
73173;SDS011;61702;55.010;73.404;2022-07-21T16:19:35;16.48;;;6.60;;
73173;SDS011;61702;55.010;73.404;2022-07-21T16:22:05;15.57;;;6.60;;
73173;SDS011;61702;55.010;73.404;2022-07-21T16:24:32;13.10;;;6.73;;
73173;SDS011;61702;55.010;73.404;2022-07-21T16:27:00;13.07;;;6.47;;
73173;SDS011;61702;55.010;73.404;2022-07-21T16:29:33;13.90;;;6.97;;
73173;SDS011;61702;55.010;73.404;2022-07-21T16:32:06;15.00;;;6.83;;
73173;SDS011;61702;55.010;73.404;2022-07-21T16:34:36;13.32;;;7.10;;
73173;SDS011;61702;55.010;73.404;2022-07-21T16:37:07;12.98;;;7.50;;
73173;SDS011;61702;55.010;73.404;2022-07-21T16:39:34;16.20;;;8.07;;
73173;SDS011;61702;55.010;73.404;2022-07-21T16:42:02;12.73;;;7.27;;
73173;SDS011;61702;55.010;73.404;2022-07-21T16:44:32;14.77;;;7.18;;
73173;SDS011;61702;55.010;73.404;2022-07-21T16:46:58;15.40;;;7.32;;
73173;SDS011;61702;55.010;73.404;2022-07-21T16:49:24;12.20;;;6.70;;
73173;SDS011;61702;55.010;73.404;2022-07-21T16:51:52;14.80;;;5.83;;
73173;SDS011;61702;55.010;73.404;2022-07-21T16:54:20;12.93;;;5.75;;
73173;SDS011;61702;55.010;73.404;2022-07-21T16:56:46;10.85;;;5.80;;
73173;SDS011;61702;55.010;73.404;2022-07-21T16:59:12;12.57;;;5.75;;
73173;SDS011;61702;55.010;73.404;2022-07-21T17:01:47;13.93;;;6.20;;
73173;SDS011;61702;55.010;73.404;2022-07-21T17:04:14;11.53;;;5.47;;
73173;SDS011;61702;55.010;73.404;2022-07-21T17:06:40;11.48;;;5.35;;
73173;SDS011;61702;55.010;73.404;2022-07-21T17:09:06;10.30;;;4.93;;
73173;SDS011;61702;55.010;73.404;2022-07-21T17:11:35;7.57;;;4.30;;
73173;SDS011;61702;55.010;73.404;2022-07-21T17:14:01;11.43;;;4.20;;
73173;SDS011;61702;55.010;73.404;2022-07-21T17:16:28;7.00;;;4.20;;
73173;SDS011;61702;55.010;73.404;2022-07-21T17:18:57;8.70;;;4.53;;
73173;SDS011;61702;55.010;73.404;2022-07-21T17:21:24;9.00;;;4.80;;
73173;SDS011;61702;55.010;73.404;2022-07-21T17:23:51;10.50;;;5.70;;
73173;SDS011;61702;55.010;73.404;2022-07-21T17:26:17;11.00;;;5.60;;
73173;SDS011;61702;55.010;73.404;2022-07-21T17:28:44;11.77;;;5.43;;
73173;SDS011;61702;55.010;73.404;2022-07-21T17:31:10;13.10;;;5.87;;
73173;SDS011;61702;55.010;73.404;2022-07-21T17:33:37;16.40;;;8.43;;
73173;SDS011;61702;55.010;73.404;2022-07-21T17:36:03;10.90;;;6.30;;
73173;SDS011;61702;55.010;73.404;2022-07-21T17:38:32;11.20;;;6.43;;
73173;SDS011;61702;55.010;73.404;2022-07-21T17:41:03;12.38;;;6.15;;
73173;SDS011;61702;55.010;73.404;2022-07-21T17:43:30;11.13;;;6.00;;
73173;SDS011;61702;55.010;73.404;2022-07-21T17:45:56;18.57;;;6.30;;
73173;SDS011;61702;55.010;73.404;2022-07-21T17:48:23;9.95;;;5.43;;
73173;SDS011;61702;55.010;73.404;2022-07-21T17:50:52;12.10;;;5.65;;
73173;SDS011;61702;55.010;73.404;2022-07-21T17:53:19;10.20;;;5.83;;
73173;SDS011;61702;55.010;73.404;2022-07-21T17:55:45;13.45;;;5.63;;
73173;SDS011;61702;55.010;73.404;2022-07-21T17:58:12;13.00;;;5.90;;
73173;SDS011;61702;55.010;73.404;2022-07-21T18:01:00;14.53;;;6.20;;
73173;SDS011;61702;55.010;73.404;2022-07-21T18:03:29;14.43;;;6.90;;
73173;SDS011;61702;55.010;73.404;2022-07-21T18:05:55;10.55;;;6.68;;
73173;SDS011;61702;55.010;73.404;2022-07-21T18:08:21;16.73;;;7.30;;
73173;SDS011;61702;55.010;73.404;2022-07-21T18:10:48;24.63;;;9.47;;
73173;SDS011;61702;55.010;73.404;2022-07-21T18:13:14;20.15;;;7.75;;
73173;SDS011;61702;55.010;73.404;2022-07-21T18:15:40;15.48;;;6.70;;